sensor_id;sensor_type;location;lat;lon;timestamp;P1;durP1;ratioP1;P2;durP2;ratioP2
3573;SDS011;1801;51.050;6.246;2022-10-16T00:00:38;3.17;;;2.33;;
3573;SDS011;1801;51.050;6.246;2022-10-16T00:03:04;4.27;;;1.80;;
3573;SDS011;1801;51.050;6.246;2022-10-16T00:05:29;1.80;;;1.70;;
3573;SDS011;1801;51.050;6.246;2022-10-16T00:07:54;5.17;;;2.27;;
3573;SDS011;1801;51.050;6.246;2022-10-16T00:10:20;2.20;;;1.70;;
3573;SDS011;1801;51.050;6.246;2022-10-16T00:12:45;2.20;;;1.80;;
3573;SDS011;1801;51.050;6.246;2022-10-16T00:15:10;2.40;;;1.77;;
3573;SDS011;1801;51.050;6.246;2022-10-16T00:17:36;1.63;;;1.53;;
3573;SDS011;1801;51.050;6.246;2022-10-16T00:20:01;2.03;;;1.60;;
3573;SDS011;1801;51.050;6.246;2022-10-16T00:22:26;1.50;;;1.30;;
3573;SDS011;1801;51.050;6.246;2022-10-16T00:24:52;8.53;;;1.83;;
3573;SDS011;1801;51.050;6.246;2022-10-16T00:27:17;1.90;;;1.60;;
3573;SDS011;1801;51.050;6.246;2022-10-16T00:29:42;3.93;;;1.50;;
3573;SDS011;1801;51.050;6.246;2022-10-16T00:32:07;1.80;;;1.00;;
3573;SDS011;1801;51.050;6.246;2022-10-16T00:34:33;3.80;;;2.00;;
3573;SDS011;1801;51.050;6.246;2022-10-16T00:36:58;2.40;;;2.20;;
3573;SDS011;1801;51.050;6.246;2022-10-16T00:39:23;3.17;;;1.83;;
3573;SDS011;1801;51.050;6.246;2022-10-16T00:41:49;2.37;;;1.47;;
3573;SDS011;1801;51.050;6.246;2022-10-16T00:46:59;4.43;;;1.77;;
3573;SDS011;1801;51.050;6.246;2022-10-16T00:49:24;1.50;;;1.40;;
3573;SDS011;1801;51.050;6.246;2022-10-16T00:51:50;1.63;;;1.53;;
3573;SDS011;1801;51.050;6.246;2022-10-16T00:54:17;3.60;;;1.90;;
3573;SDS011;1801;51.050;6.246;2022-10-16T00:56:43;2.73;;;2.17;;
3573;SDS011;1801;51.050;6.246;2022-10-16T00:59:32;1.77;;;1.50;;
3573;SDS011;1801;51.050;6.246;2022-10-16T01:01:55;3.80;;;1.80;;
3573;SDS011;1801;51.050;6.246;2022-10-16T01:04:21;1.60;;;1.30;;
3573;SDS011;1801;51.050;6.246;2022-10-16T01:09:47;1.73;;;1.37;;
3573;SDS011;1801;51.050;6.246;2022-10-16T01:17:57;2.93;;;1.70;;
3573;SDS011;1801;51.050;6.246;2022-10-16T01:20:37;1.77;;;1.40;;
3573;SDS011;1801;51.050;6.246;2022-10-16T01:28:21;2.00;;;1.63;;
3573;SDS011;1801;51.050;6.246;2022-10-16T01:30:47;4.97;;;1.67;;
3573;SDS011;1801;51.050;6.246;2022-10-16T01:33:23;6.37;;;2.20;;
3573;SDS011;1801;51.050;6.246;2022-10-16T01:35:53;3.27;;;1.87;;
3573;SDS011;1801;51.050;6.246;2022-10-16T01:38:21;1.30;;;1.20;;
3573;SDS011;1801;51.050;6.246;2022-10-16T01:40:51;1.60;;;1.20;;
3573;SDS011;1801;51.050;6.246;2022-10-16T01:43:25;2.97;;;1.37;;
3573;SDS011;1801;51.050;6.246;2022-10-16T01:45:51;1.93;;;1.33;;
3573;SDS011;1801;51.050;6.246;2022-10-16T01:48:17;2.30;;;1.33;;
3573;SDS011;1801;51.050;6.246;2022-10-16T01:50:44;1.33;;;1.23;;
3573;SDS011;1801;51.050;6.246;2022-10-16T01:53:10;2.93;;;1.40;;
3573;SDS011;1801;51.050;6.246;2022-10-16T01:55:38;1.63;;;1.17;;
3573;SDS011;1801;51.050;6.246;2022-10-16T01:58:04;1.90;;;1.70;;
3573;SDS011;1801;51.050;6.246;2022-10-16T02:00:30;1.80;;;0.97;;
3573;SDS011;1801;51.050;6.246;2022-10-16T02:02:56;9.40;;;1.40;;
3573;SDS011;1801;51.050;6.246;2022-10-16T02:05:24;1.33;;;1.10;;
3573;SDS011;1801;51.050;6.246;2022-10-16T02:07:51;1.50;;;1.10;;
3573;SDS011;1801;51.050;6.246;2022-10-16T02:10:16;2.60;;;1.60;;
3573;SDS011;1801;51.050;6.246;2022-10-16T02:12:44;2.93;;;0.90;;
3573;SDS011;1801;51.050;6.246;2022-10-16T02:15:10;3.53;;;1.43;;
3573;SDS011;1801;51.050;6.246;2022-10-16T02:17:36;1.30;;;1.20;;
3573;SDS011;1801;51.050;6.246;2022-10-16T02:20:01;1.90;;;1.40;;
3573;SDS011;1801;51.050;6.246;2022-10-16T02:22:27;0.90;;;0.90;;
3573;SDS011;1801;51.050;6.246;2022-10-16T02:25:04;2.60;;;1.60;;
3573;SDS011;1801;51.050;6.246;2022-10-16T02:30:02;1.90;;;1.00;;
3573;SDS011;1801;51.050;6.246;2022-10-16T02:32:32;2.37;;;1.40;;
3573;SDS011;1801;51.050;6.246;2022-10-16T02:34:58;2.17;;;1.97;;
3573;SDS011;1801;51.050;6.246;2022-10-16T02:37:25;1.33;;;1.17;;
3573;SDS011;1801;51.050;6.246;2022-10-16T02:39:51;10.83;;;1.17;;
3573;SDS011;1801;51.050;6.246;2022-10-16T02:42:17;2.30;;;1.17;;
3573;SDS011;1801;51.050;6.246;2022-10-16T02:44:42;1.37;;;1.17;;
3573;SDS011;1801;51.050;6.246;2022-10-16T02:47:07;1.00;;;0.97;;
3573;SDS011;1801;51.050;6.246;2022-10-16T02:49:33;1.80;;;1.17;;
3573;SDS011;1801;51.050;6.246;2022-10-16T02:51:58;1.37;;;1.20;;
3573;SDS011;1801;51.050;6.246;2022-10-16T02:54:23;1.63;;;1.37;;
3573;SDS011;1801;51.050;6.246;2022-10-16T02:56:49;1.50;;;1.17;;
3573;SDS011;1801;51.050;6.246;2022-10-16T02:59:14;1.50;;;1.20;;
3573;SDS011;1801;51.050;6.246;2022-10-16T03:01:39;2.30;;;0.90;;
3573;SDS011;1801;51.050;6.246;2022-10-16T03:04:04;1.57;;;1.20;;
3573;SDS011;1801;51.050;6.246;2022-10-16T03:06:30;1.07;;;0.90;;
3573;SDS011;1801;51.050;6.246;2022-10-16T03:08:55;1.10;;;0.80;;
3573;SDS011;1801;51.050;6.246;2022-10-16T03:11:20;2.57;;;1.00;;
3573;SDS011;1801;51.050;6.246;2022-10-16T03:13:45;2.97;;;1.43;;
3573;SDS011;1801;51.050;6.246;2022-10-16T03:16:10;1.90;;;1.20;;
3573;SDS011;1801;51.050;6.246;2022-10-16T03:18:36;1.00;;;0.93;;
3573;SDS011;1801;51.050;6.246;2022-10-16T03:21:01;1.97;;;1.20;;
3573;SDS011;1801;51.050;6.246;2022-10-16T03:23:26;3.70;;;1.27;;
3573;SDS011;1801;51.050;6.246;2022-10-16T03:25:51;1.67;;;1.10;;
3573;SDS011;1801;51.050;6.246;2022-10-16T03:28:17;2.27;;;1.43;;
3573;SDS011;1801;51.050;6.246;2022-10-16T03:30:43;1.23;;;0.70;;
3573;SDS011;1801;51.050;6.246;2022-10-16T03:33:08;1.23;;;1.13;;
3573;SDS011;1801;51.050;6.246;2022-10-16T03:35:33;4.27;;;1.50;;
3573;SDS011;1801;51.050;6.246;2022-10-16T03:37:59;1.30;;;1.20;;
3573;SDS011;1801;51.050;6.246;2022-10-16T03:40:24;1.30;;;1.10;;
3573;SDS011;1801;51.050;6.246;2022-10-16T03:42:49;1.13;;;0.90;;
3573;SDS011;1801;51.050;6.246;2022-10-16T03:45:15;1.20;;;1.10;;
3573;SDS011;1801;51.050;6.246;2022-10-16T03:47:40;5.30;;;1.33;;
3573;SDS011;1801;51.050;6.246;2022-10-16T03:50:06;1.20;;;1.10;;
3573;SDS011;1801;51.050;6.246;2022-10-16T03:52:31;1.90;;;1.30;;
3573;SDS011;1801;51.050;6.246;2022-10-16T03:54:57;1.67;;;1.57;;
3573;SDS011;1801;51.050;6.246;2022-10-16T03:57:23;2.17;;;1.33;;
3573;SDS011;1801;51.050;6.246;2022-10-16T03:59:49;3.03;;;1.77;;
3573;SDS011;1801;51.050;6.246;2022-10-16T04:02:14;1.50;;;1.40;;
3573;SDS011;1801;51.050;6.246;2022-10-16T04:04:39;1.70;;;1.60;;
3573;SDS011;1801;51.050;6.246;2022-10-16T04:07:04;2.77;;;1.47;;
3573;SDS011;1801;51.050;6.246;2022-10-16T04:09:29;3.97;;;1.60;;
3573;SDS011;1801;51.050;6.246;2022-10-16T04:11:55;3.90;;;1.33;;
3573;SDS011;1801;51.050;6.246;2022-10-16T04:14:20;1.73;;;1.47;;
3573;SDS011;1801;51.050;6.246;2022-10-16T04:16:45;3.30;;;1.40;;
3573;SDS011;1801;51.050;6.246;2022-10-16T04:19:11;1.20;;;1.10;;
3573;SDS011;1801;51.050;6.246;2022-10-16T04:21:36;4.83;;;1.50;;
3573;SDS011;1801;51.050;6.246;2022-10-16T04:24:02;1.97;;;1.70;;
3573;SDS011;1801;51.050;6.246;2022-10-16T04:26:28;2.00;;;1.80;;
3573;SDS011;1801;51.050;6.246;2022-10-16T04:28:53;1.70;;;1.57;;
3573;SDS011;1801;51.050;6.246;2022-10-16T04:31:19;4.30;;;2.10;;
3573;SDS011;1801;51.050;6.246;2022-10-16T04:33:44;4.23;;;2.33;;
3573;SDS011;1801;51.050;6.246;2022-10-16T04:36:11;4.20;;;2.43;;
3573;SDS011;1801;51.050;6.246;2022-10-16T04:38:36;2.53;;;2.30;;
3573;SDS011;1801;51.050;6.246;2022-10-16T04:41:02;10.30;;;2.37;;
3573;SDS011;1801;51.050;6.246;2022-10-16T04:43:27;3.20;;;1.90;;
3573;SDS011;1801;51.050;6.246;2022-10-16T04:45:53;7.00;;;2.37;;
3573;SDS011;1801;51.050;6.246;2022-10-16T04:48:19;3.17;;;2.30;;
3573;SDS011;1801;51.050;6.246;2022-10-16T04:50:44;1.67;;;1.57;;
3573;SDS011;1801;51.050;6.246;2022-10-16T04:53:10;7.20;;;2.43;;
3573;SDS011;1801;51.050;6.246;2022-10-16T04:55:37;3.03;;;2.53;;
3573;SDS011;1801;51.050;6.246;2022-10-16T04:58:03;2.47;;;2.23;;
3573;SDS011;1801;51.050;6.246;2022-10-16T05:00:28;3.40;;;2.50;;
3573;SDS011;1801;51.050;6.246;2022-10-16T05:02:53;5.00;;;2.10;;
3573;SDS011;1801;51.050;6.246;2022-10-16T05:05:18;2.53;;;2.17;;
3573;SDS011;1801;51.050;6.246;2022-10-16T05:07:45;2.60;;;2.07;;
3573;SDS011;1801;51.050;6.246;2022-10-16T05:10:10;3.73;;;2.87;;
3573;SDS011;1801;51.050;6.246;2022-10-16T05:12:35;4.00;;;2.63;;
3573;SDS011;1801;51.050;6.246;2022-10-16T05:15:00;2.43;;;2.07;;
3573;SDS011;1801;51.050;6.246;2022-10-16T05:17:26;2.63;;;2.40;;
3573;SDS011;1801;51.050;6.246;2022-10-16T05:19:51;4.67;;;2.50;;
3573;SDS011;1801;51.050;6.246;2022-10-16T05:22:16;2.50;;;1.90;;
3573;SDS011;1801;51.050;6.246;2022-10-16T05:24:41;4.33;;;2.67;;
3573;SDS011;1801;51.050;6.246;2022-10-16T05:27:07;2.97;;;2.73;;
3573;SDS011;1801;51.050;6.246;2022-10-16T05:29:32;4.33;;;2.70;;
3573;SDS011;1801;51.050;6.246;2022-10-16T05:31:57;3.40;;;3.10;;
3573;SDS011;1801;51.050;6.246;2022-10-16T05:34:22;7.07;;;3.00;;
3573;SDS011;1801;51.050;6.246;2022-10-16T05:36:48;3.50;;;3.00;;
3573;SDS011;1801;51.050;6.246;2022-10-16T05:39:14;3.77;;;3.40;;
3573;SDS011;1801;51.050;6.246;2022-10-16T05:41:40;3.80;;;2.50;;
3573;SDS011;1801;51.050;6.246;2022-10-16T05:44:05;3.97;;;2.80;;
3573;SDS011;1801;51.050;6.246;2022-10-16T05:46:31;3.03;;;2.30;;
3573;SDS011;1801;51.050;6.246;2022-10-16T05:48:56;3.33;;;2.53;;
3573;SDS011;1801;51.050;6.246;2022-10-16T05:51:21;4.50;;;2.70;;
3573;SDS011;1801;51.050;6.246;2022-10-16T05:53:47;4.10;;;2.80;;
3573;SDS011;1801;51.050;6.246;2022-10-16T05:56:12;3.17;;;2.60;;
3573;SDS011;1801;51.050;6.246;2022-10-16T05:58:37;5.30;;;3.33;;
3573;SDS011;1801;51.050;6.246;2022-10-16T06:01:15;7.50;;;4.50;;
3573;SDS011;1801;51.050;6.246;2022-10-16T06:03:41;4.37;;;3.13;;
3573;SDS011;1801;51.050;6.246;2022-10-16T06:06:10;5.40;;;3.57;;
3573;SDS011;1801;51.050;6.246;2022-10-16T06:08:35;5.20;;;3.13;;
3573;SDS011;1801;51.050;6.246;2022-10-16T06:11:02;3.10;;;2.70;;
3573;SDS011;1801;51.050;6.246;2022-10-16T06:13:27;6.40;;;3.47;;
3573;SDS011;1801;51.050;6.246;2022-10-16T06:15:52;2.83;;;2.50;;
3573;SDS011;1801;51.050;6.246;2022-10-16T06:18:18;4.73;;;3.30;;
3573;SDS011;1801;51.050;6.246;2022-10-16T06:20:43;3.80;;;2.97;;
3573;SDS011;1801;51.050;6.246;2022-10-16T06:23:08;6.50;;;3.07;;
3573;SDS011;1801;51.050;6.246;2022-10-16T06:25:33;3.10;;;2.27;;
3573;SDS011;1801;51.050;6.246;2022-10-16T06:27:59;4.40;;;3.13;;
3573;SDS011;1801;51.050;6.246;2022-10-16T06:30:24;3.60;;;3.30;;
3573;SDS011;1801;51.050;6.246;2022-10-16T06:32:49;4.13;;;2.60;;
3573;SDS011;1801;51.050;6.246;2022-10-16T06:35:14;3.03;;;2.30;;
3573;SDS011;1801;51.050;6.246;2022-10-16T06:37:40;5.53;;;4.13;;
3573;SDS011;1801;51.050;6.246;2022-10-16T06:40:05;7.00;;;2.40;;
3573;SDS011;1801;51.050;6.246;2022-10-16T06:42:31;7.80;;;3.70;;
3573;SDS011;1801;51.050;6.246;2022-10-16T06:44:56;2.70;;;2.10;;
3573;SDS011;1801;51.050;6.246;2022-10-16T06:47:21;5.33;;;2.53;;
3573;SDS011;1801;51.050;6.246;2022-10-16T06:49:47;3.03;;;1.73;;
3573;SDS011;1801;51.050;6.246;2022-10-16T06:52:12;3.13;;;1.80;;
3573;SDS011;1801;51.050;6.246;2022-10-16T06:54:37;4.40;;;1.80;;
3573;SDS011;1801;51.050;6.246;2022-10-16T06:57:02;2.23;;;2.00;;
3573;SDS011;1801;51.050;6.246;2022-10-16T06:59:28;2.13;;;1.93;;
3573;SDS011;1801;51.050;6.246;2022-10-16T07:01:53;4.60;;;2.40;;
3573;SDS011;1801;51.050;6.246;2022-10-16T07:04:18;5.33;;;2.20;;
3573;SDS011;1801;51.050;6.246;2022-10-16T07:06:43;6.60;;;2.27;;
3573;SDS011;1801;51.050;6.246;2022-10-16T07:09:09;3.43;;;1.87;;
3573;SDS011;1801;51.050;6.246;2022-10-16T07:11:35;2.03;;;1.70;;
3573;SDS011;1801;51.050;6.246;2022-10-16T07:14:01;5.07;;;2.03;;
3573;SDS011;1801;51.050;6.246;2022-10-16T07:16:27;2.80;;;2.37;;
3573;SDS011;1801;51.050;6.246;2022-10-16T07:19:02;7.50;;;2.00;;
3573;SDS011;1801;51.050;6.246;2022-10-16T07:21:29;2.77;;;2.40;;
3573;SDS011;1801;51.050;6.246;2022-10-16T07:23:55;2.77;;;2.57;;
3573;SDS011;1801;51.050;6.246;2022-10-16T07:26:21;2.37;;;2.00;;
3573;SDS011;1801;51.050;6.246;2022-10-16T07:28:47;6.37;;;2.30;;
3573;SDS011;1801;51.050;6.246;2022-10-16T07:31:13;4.87;;;2.37;;
3573;SDS011;1801;51.050;6.246;2022-10-16T07:33:39;6.60;;;2.00;;
3573;SDS011;1801;51.050;6.246;2022-10-16T07:36:05;1.87;;;1.57;;
3573;SDS011;1801;51.050;6.246;2022-10-16T07:38:30;1.93;;;1.70;;
3573;SDS011;1801;51.050;6.246;2022-10-16T07:40:59;2.00;;;1.73;;
3573;SDS011;1801;51.050;6.246;2022-10-16T07:43:25;3.00;;;2.03;;
3573;SDS011;1801;51.050;6.246;2022-10-16T07:45:51;2.50;;;2.10;;
3573;SDS011;1801;51.050;6.246;2022-10-16T07:48:16;1.60;;;1.50;;
3573;SDS011;1801;51.050;6.246;2022-10-16T07:50:42;10.53;;;3.10;;
3573;SDS011;1801;51.050;6.246;2022-10-16T07:53:07;3.27;;;2.00;;
3573;SDS011;1801;51.050;6.246;2022-10-16T07:55:33;2.93;;;1.60;;
3573;SDS011;1801;51.050;6.246;2022-10-16T07:57:58;2.67;;;1.40;;
3573;SDS011;1801;51.050;6.246;2022-10-16T08:00:23;3.83;;;3.20;;
3573;SDS011;1801;51.050;6.246;2022-10-16T08:02:48;3.40;;;1.60;;
3573;SDS011;1801;51.050;6.246;2022-10-16T08:05:14;8.87;;;2.40;;
3573;SDS011;1801;51.050;6.246;2022-10-16T08:07:39;5.03;;;1.53;;
3573;SDS011;1801;51.050;6.246;2022-10-16T08:10:04;2.20;;;1.37;;
3573;SDS011;1801;51.050;6.246;2022-10-16T08:12:30;2.10;;;1.87;;
3573;SDS011;1801;51.050;6.246;2022-10-16T08:14:55;1.40;;;1.30;;
3573;SDS011;1801;51.050;6.246;2022-10-16T08:17:20;3.50;;;1.47;;
3573;SDS011;1801;51.050;6.246;2022-10-16T08:19:46;2.87;;;1.40;;
3573;SDS011;1801;51.050;6.246;2022-10-16T08:22:12;7.20;;;1.60;;
3573;SDS011;1801;51.050;6.246;2022-10-16T08:24:37;1.83;;;1.50;;
3573;SDS011;1801;51.050;6.246;2022-10-16T08:27:03;1.27;;;1.17;;
3573;SDS011;1801;51.050;6.246;2022-10-16T08:29:28;2.30;;;1.20;;
3573;SDS011;1801;51.050;6.246;2022-10-16T08:31:53;2.40;;;1.20;;
3573;SDS011;1801;51.050;6.246;2022-10-16T08:34:19;2.60;;;1.23;;
3573;SDS011;1801;51.050;6.246;2022-10-16T08:36:44;1.30;;;1.20;;
3573;SDS011;1801;51.050;6.246;2022-10-16T08:39:09;5.57;;;1.10;;
3573;SDS011;1801;51.050;6.246;2022-10-16T08:49:02;2.90;;;1.40;;
3573;SDS011;1801;51.050;6.246;2022-10-16T08:51:29;10.37;;;1.40;;
3573;SDS011;1801;51.050;6.246;2022-10-16T08:53:59;1.47;;;0.93;;
3573;SDS011;1801;51.050;6.246;2022-10-16T08:56:26;2.93;;;0.87;;
3573;SDS011;1801;51.050;6.246;2022-10-16T08:58:52;2.23;;;1.00;;
3573;SDS011;1801;51.050;6.246;2022-10-16T09:01:18;5.53;;;0.90;;
3573;SDS011;1801;51.050;6.246;2022-10-16T09:03:51;1.67;;;1.00;;
3573;SDS011;1801;51.050;6.246;2022-10-16T09:16:45;1.60;;;0.73;;
3573;SDS011;1801;51.050;6.246;2022-10-16T09:21:41;1.23;;;0.90;;
3573;SDS011;1801;51.050;6.246;2022-10-16T09:24:09;1.50;;;0.90;;
3573;SDS011;1801;51.050;6.246;2022-10-16T09:26:36;3.67;;;1.67;;
3573;SDS011;1801;51.050;6.246;2022-10-16T09:29:01;1.80;;;0.90;;
3573;SDS011;1801;51.050;6.246;2022-10-16T09:31:27;5.60;;;1.00;;
3573;SDS011;1801;51.050;6.246;2022-10-16T09:33:54;11.10;;;0.93;;
3573;SDS011;1801;51.050;6.246;2022-10-16T09:36:20;3.10;;;0.80;;
3573;SDS011;1801;51.050;6.246;2022-10-16T09:38:46;1.33;;;1.03;;
3573;SDS011;1801;51.050;6.246;2022-10-16T09:41:14;5.20;;;1.10;;
3573;SDS011;1801;51.050;6.246;2022-10-16T09:46:21;5.93;;;0.93;;
3573;SDS011;1801;51.050;6.246;2022-10-16T09:48:47;2.60;;;1.00;;
3573;SDS011;1801;51.050;6.246;2022-10-16T09:51:21;2.13;;;1.40;;
3573;SDS011;1801;51.050;6.246;2022-10-16T09:53:48;2.80;;;0.97;;
3573;SDS011;1801;51.050;6.246;2022-10-16T09:56:23;2.37;;;0.87;;
3573;SDS011;1801;51.050;6.246;2022-10-16T09:58:50;3.57;;;1.20;;
3573;SDS011;1801;51.050;6.246;2022-10-16T10:01:16;3.53;;;1.70;;
3573;SDS011;1801;51.050;6.246;2022-10-16T10:03:42;1.70;;;0.87;;
3573;SDS011;1801;51.050;6.246;2022-10-16T10:06:18;1.47;;;1.23;;
3573;SDS011;1801;51.050;6.246;2022-10-16T10:09:20;1.80;;;0.80;;
3573;SDS011;1801;51.050;6.246;2022-10-16T10:11:38;7.33;;;1.20;;
3573;SDS011;1801;51.050;6.246;2022-10-16T10:14:15;4.60;;;1.20;;
3573;SDS011;1801;51.050;6.246;2022-10-16T10:16:41;1.30;;;0.80;;
3573;SDS011;1801;51.050;6.246;2022-10-16T10:19:12;2.60;;;0.90;;
3573;SDS011;1801;51.050;6.246;2022-10-16T10:21:38;7.03;;;1.20;;
3573;SDS011;1801;51.050;6.246;2022-10-16T10:24:03;3.50;;;1.00;;
3573;SDS011;1801;51.050;6.246;2022-10-16T10:26:30;4.20;;;1.27;;
3573;SDS011;1801;51.050;6.246;2022-10-16T10:31:29;3.23;;;1.87;;
3573;SDS011;1801;51.050;6.246;2022-10-16T10:34:42;3.70;;;0.70;;
3573;SDS011;1801;51.050;6.246;2022-10-16T10:36:49;5.07;;;2.00;;
3573;SDS011;1801;51.050;6.246;2022-10-16T10:57:30;2.50;;;1.50;;
3573;SDS011;1801;51.050;6.246;2022-10-16T11:07:27;11.13;;;1.53;;
3573;SDS011;1801;51.050;6.246;2022-10-16T11:09:57;1.10;;;1.00;;
3573;SDS011;1801;51.050;6.246;2022-10-16T11:12:30;2.97;;;1.23;;
3573;SDS011;1801;51.050;6.246;2022-10-16T11:15:16;2.30;;;1.10;;
3573;SDS011;1801;51.050;6.246;2022-10-16T11:17:48;3.50;;;1.00;;
3573;SDS011;1801;51.050;6.246;2022-10-16T11:20:16;2.77;;;0.80;;
3573;SDS011;1801;51.050;6.246;2022-10-16T11:22:44;4.33;;;1.27;;
3573;SDS011;1801;51.050;6.246;2022-10-16T11:30:27;1.90;;;1.17;;
3573;SDS011;1801;51.050;6.246;2022-10-16T11:33:13;3.80;;;1.83;;
3573;SDS011;1801;51.050;6.246;2022-10-16T11:41:02;2.40;;;0.93;;
3573;SDS011;1801;51.050;6.246;2022-10-16T11:43:35;4.50;;;1.23;;
3573;SDS011;1801;51.050;6.246;2022-10-16T11:46:04;3.23;;;1.33;;
3573;SDS011;1801;51.050;6.246;2022-10-16T11:48:35;4.70;;;1.70;;
3573;SDS011;1801;51.050;6.246;2022-10-16T11:56:22;3.70;;;1.40;;
3573;SDS011;1801;51.050;6.246;2022-10-16T12:01:17;1.77;;;1.63;;
3573;SDS011;1801;51.050;6.246;2022-10-16T12:08:48;1.87;;;1.00;;
3573;SDS011;1801;51.050;6.246;2022-10-16T12:13:51;5.27;;;1.50;;
3573;SDS011;1801;51.050;6.246;2022-10-16T12:18:45;1.13;;;0.93;;
3573;SDS011;1801;51.050;6.246;2022-10-16T12:21:11;5.20;;;1.07;;
3573;SDS011;1801;51.050;6.246;2022-10-16T12:26:11;5.23;;;1.07;;
3573;SDS011;1801;51.050;6.246;2022-10-16T12:28:37;5.70;;;1.27;;
3573;SDS011;1801;51.050;6.246;2022-10-16T12:31:07;1.50;;;1.20;;
3573;SDS011;1801;51.050;6.246;2022-10-16T12:36:00;2.80;;;0.83;;
3573;SDS011;1801;51.050;6.246;2022-10-16T12:38:28;1.90;;;0.90;;
3573;SDS011;1801;51.050;6.246;2022-10-16T12:40:58;3.20;;;0.90;;
3573;SDS011;1801;51.050;6.246;2022-10-16T12:43:26;5.50;;;0.90;;
3573;SDS011;1801;51.050;6.246;2022-10-16T12:45:58;3.40;;;0.93;;
3573;SDS011;1801;51.050;6.246;2022-10-16T12:48:24;0.93;;;0.80;;
3573;SDS011;1801;51.050;6.246;2022-10-16T12:50:50;2.60;;;0.80;;
3573;SDS011;1801;51.050;6.246;2022-10-16T12:53:25;2.00;;;1.23;;
3573;SDS011;1801;51.050;6.246;2022-10-16T12:58:23;1.23;;;0.80;;
3573;SDS011;1801;51.050;6.246;2022-10-16T13:00:54;3.17;;;0.80;;
3573;SDS011;1801;51.050;6.246;2022-10-16T13:06:05;2.30;;;0.93;;
3573;SDS011;1801;51.050;6.246;2022-10-16T13:13:50;1.53;;;0.67;;
3573;SDS011;1801;51.050;6.246;2022-10-16T13:19:16;3.23;;;2.20;;
3573;SDS011;1801;51.050;6.246;2022-10-16T13:29:41;2.43;;;0.90;;
3573;SDS011;1801;51.050;6.246;2022-10-16T13:32:07;2.80;;;1.10;;
3573;SDS011;1801;51.050;6.246;2022-10-16T13:34:41;1.57;;;0.73;;
3573;SDS011;1801;51.050;6.246;2022-10-16T13:37:15;2.43;;;0.90;;
3573;SDS011;1801;51.050;6.246;2022-10-16T13:39:41;1.00;;;0.70;;
3573;SDS011;1801;51.050;6.246;2022-10-16T13:42:07;2.30;;;0.83;;
3573;SDS011;1801;51.050;6.246;2022-10-16T13:44:47;1.40;;;0.70;;
3573;SDS011;1801;51.050;6.246;2022-10-16T13:47:17;1.37;;;0.73;;
3573;SDS011;1801;51.050;6.246;2022-10-16T13:49:43;3.57;;;0.90;;
3573;SDS011;1801;51.050;6.246;2022-10-16T13:52:16;2.97;;;0.80;;
3573;SDS011;1801;51.050;6.246;2022-10-16T13:54:42;3.00;;;0.73;;
3573;SDS011;1801;51.050;6.246;2022-10-16T13:57:07;2.00;;;0.90;;
3573;SDS011;1801;51.050;6.246;2022-10-16T13:59:33;0.90;;;0.60;;
3573;SDS011;1801;51.050;6.246;2022-10-16T14:01:58;4.57;;;0.87;;
3573;SDS011;1801;51.050;6.246;2022-10-16T14:04:25;1.77;;;0.90;;
3573;SDS011;1801;51.050;6.246;2022-10-16T14:06:52;1.13;;;0.70;;
3573;SDS011;1801;51.050;6.246;2022-10-16T14:09:27;1.93;;;1.27;;
3573;SDS011;1801;51.050;6.246;2022-10-16T14:11:58;2.53;;;0.93;;
3573;SDS011;1801;51.050;6.246;2022-10-16T14:14:24;0.80;;;0.70;;
3573;SDS011;1801;51.050;6.246;2022-10-16T14:16:50;4.23;;;1.00;;
3573;SDS011;1801;51.050;6.246;2022-10-16T14:19:18;5.90;;;2.93;;
3573;SDS011;1801;51.050;6.246;2022-10-16T14:21:45;1.67;;;1.00;;
3573;SDS011;1801;51.050;6.246;2022-10-16T14:24:11;1.03;;;0.90;;
3573;SDS011;1801;51.050;6.246;2022-10-16T14:26:41;0.83;;;0.70;;
3573;SDS011;1801;51.050;6.246;2022-10-16T14:29:13;2.40;;;0.90;;
3573;SDS011;1801;51.050;6.246;2022-10-16T14:31:39;2.77;;;0.80;;
3573;SDS011;1801;51.050;6.246;2022-10-16T14:34:22;8.63;;;1.03;;
3573;SDS011;1801;51.050;6.246;2022-10-16T14:36:47;4.60;;;1.20;;
3573;SDS011;1801;51.050;6.246;2022-10-16T14:39:17;4.63;;;1.17;;
3573;SDS011;1801;51.050;6.246;2022-10-16T14:41:45;3.80;;;1.17;;
3573;SDS011;1801;51.050;6.246;2022-10-16T14:44:10;0.80;;;0.80;;
3573;SDS011;1801;51.050;6.246;2022-10-16T14:46:37;1.40;;;0.63;;
3573;SDS011;1801;51.050;6.246;2022-10-16T14:51:37;4.97;;;1.43;;
3573;SDS011;1801;51.050;6.246;2022-10-16T14:54:03;4.27;;;1.27;;
3573;SDS011;1801;51.050;6.246;2022-10-16T14:56:29;2.73;;;1.13;;
3573;SDS011;1801;51.050;6.246;2022-10-16T14:58:55;1.73;;;0.77;;
3573;SDS011;1801;51.050;6.246;2022-10-16T15:01:20;1.63;;;0.90;;
3573;SDS011;1801;51.050;6.246;2022-10-16T15:03:45;2.60;;;0.93;;
3573;SDS011;1801;51.050;6.246;2022-10-16T15:06:11;2.93;;;1.17;;
3573;SDS011;1801;51.050;6.246;2022-10-16T15:08:37;6.13;;;1.40;;
3573;SDS011;1801;51.050;6.246;2022-10-16T15:11:02;6.33;;;1.40;;
3573;SDS011;1801;51.050;6.246;2022-10-16T15:13:27;10.70;;;1.60;;
3573;SDS011;1801;51.050;6.246;2022-10-16T15:15:52;4.30;;;1.30;;
3573;SDS011;1801;51.050;6.246;2022-10-16T15:18:18;2.70;;;1.50;;
3573;SDS011;1801;51.050;6.246;2022-10-16T15:20:47;2.47;;;1.40;;
3573;SDS011;1801;51.050;6.246;2022-10-16T15:23:13;3.00;;;1.50;;
3573;SDS011;1801;51.050;6.246;2022-10-16T15:25:41;1.37;;;1.20;;
3573;SDS011;1801;51.050;6.246;2022-10-16T15:28:06;3.13;;;1.10;;
3573;SDS011;1801;51.050;6.246;2022-10-16T15:30:32;1.60;;;1.20;;
3573;SDS011;1801;51.050;6.246;2022-10-16T15:32:58;3.00;;;1.77;;
3573;SDS011;1801;51.050;6.246;2022-10-16T15:35:23;2.47;;;1.13;;
3573;SDS011;1801;51.050;6.246;2022-10-16T15:37:48;2.00;;;1.10;;
3573;SDS011;1801;51.050;6.246;2022-10-16T15:40:14;4.77;;;1.30;;
3573;SDS011;1801;51.050;6.246;2022-10-16T15:42:39;3.00;;;1.60;;
3573;SDS011;1801;51.050;6.246;2022-10-16T15:45:05;1.43;;;1.20;;
3573;SDS011;1801;51.050;6.246;2022-10-16T15:47:31;2.60;;;1.00;;
3573;SDS011;1801;51.050;6.246;2022-10-16T15:49:56;0.93;;;0.90;;
3573;SDS011;1801;51.050;6.246;2022-10-16T15:52:22;4.07;;;1.70;;
3573;SDS011;1801;51.050;6.246;2022-10-16T15:54:47;2.00;;;0.90;;
3573;SDS011;1801;51.050;6.246;2022-10-16T15:57:12;3.50;;;0.90;;
3573;SDS011;1801;51.050;6.246;2022-10-16T15:59:37;1.63;;;1.30;;
3573;SDS011;1801;51.050;6.246;2022-10-16T16:02:02;6.00;;;1.23;;
3573;SDS011;1801;51.050;6.246;2022-10-16T16:04:30;3.60;;;1.67;;
3573;SDS011;1801;51.050;6.246;2022-10-16T16:06:56;10.43;;;1.57;;
3573;SDS011;1801;51.050;6.246;2022-10-16T16:09:21;1.63;;;1.27;;
3573;SDS011;1801;51.050;6.246;2022-10-16T16:11:46;3.40;;;1.57;;
3573;SDS011;1801;51.050;6.246;2022-10-16T16:14:13;4.40;;;1.43;;
3573;SDS011;1801;51.050;6.246;2022-10-16T16:16:38;4.30;;;1.73;;
3573;SDS011;1801;51.050;6.246;2022-10-16T16:19:04;6.00;;;3.67;;
3573;SDS011;1801;51.050;6.246;2022-10-16T16:21:29;13.60;;;7.03;;
3573;SDS011;1801;51.050;6.246;2022-10-16T16:23:55;14.40;;;6.03;;
3573;SDS011;1801;51.050;6.246;2022-10-16T16:26:26;8.47;;;3.87;;
3573;SDS011;1801;51.050;6.246;2022-10-16T16:28:52;9.50;;;3.37;;
3573;SDS011;1801;51.050;6.246;2022-10-16T16:31:18;4.23;;;3.50;;
3573;SDS011;1801;51.050;6.246;2022-10-16T16:33:43;5.50;;;1.97;;
3573;SDS011;1801;51.050;6.246;2022-10-16T16:36:09;2.20;;;1.60;;
3573;SDS011;1801;51.050;6.246;2022-10-16T16:38:34;2.50;;;1.60;;
3573;SDS011;1801;51.050;6.246;2022-10-16T16:40:59;4.13;;;2.47;;
3573;SDS011;1801;51.050;6.246;2022-10-16T16:43:25;2.13;;;2.00;;
3573;SDS011;1801;51.050;6.246;2022-10-16T16:45:51;5.73;;;1.80;;
3573;SDS011;1801;51.050;6.246;2022-10-16T16:48:16;3.27;;;2.97;;
3573;SDS011;1801;51.050;6.246;2022-10-16T16:50:42;7.73;;;6.93;;
3573;SDS011;1801;51.050;6.246;2022-10-16T16:53:07;13.23;;;11.20;;
3573;SDS011;1801;51.050;6.246;2022-10-16T16:55:32;26.67;;;23.83;;
3573;SDS011;1801;51.050;6.246;2022-10-16T16:57:58;10.87;;;9.77;;
3573;SDS011;1801;51.050;6.246;2022-10-16T17:00:23;3.30;;;2.80;;
3573;SDS011;1801;51.050;6.246;2022-10-16T17:02:49;6.70;;;2.50;;
3573;SDS011;1801;51.050;6.246;2022-10-16T17:05:14;4.20;;;2.20;;
3573;SDS011;1801;51.050;6.246;2022-10-16T17:07:39;3.13;;;2.77;;
3573;SDS011;1801;51.050;6.246;2022-10-16T17:10:05;2.30;;;1.93;;
3573;SDS011;1801;51.050;6.246;2022-10-16T17:12:31;3.23;;;2.30;;
3573;SDS011;1801;51.050;6.246;2022-10-16T17:14:56;2.20;;;2.00;;
3573;SDS011;1801;51.050;6.246;2022-10-16T17:17:21;2.50;;;2.00;;
3573;SDS011;1801;51.050;6.246;2022-10-16T17:19:48;5.30;;;1.83;;